Wind From: 11-12-2017 06:00 Until: 12-12-2017 06:00 warning for: Wind Level: Orange info button

Power and phone distribution networks may be disrupted for relatively long periods., Roofs and chimneys can be damaged. , Tree branches may break. , Vehicles can be deported. , Traffic may be disrupted, particularly on secondary roads in forest areas. Limit your trips. , Limit your speed in highway driving, especially if you drive a vehicle or hitch sensitive to wind. , Do not go for walks in forests or along the coast., In town, be vigilant against possible falling objects., Do not work on roofs and do not touch any electrical line fallen on the ground., Store or secure sensitive objects to wind or likely to be damaged., Always install power generators outside buildings. 


Meteo18 Weather Cam more information Meteo18 Weather Cam


Thunder radar more information blitzortung!


Rain radar more information rain snow radar


Visit our other weather sites:

Template documentation
and downloads

And another site



Weather Underground History page Text

Daily Summary for October 11, 2017 Units:  Metric    English   Both
« Previous Day
Next Day »
Daily Weekly Monthly Yearly Custom
  High: Low: Average:
Temperature: 21.4 °C 8.4 °C 13.6 °C
Dew Point: 13.6 °C 8.0 °C 11.3 °C
Humidity: 97 % 58 % 87 %
Wind Speed: 19.3 km/h 0.0 km/h 1.2 km/h
Wind Gust: 22.5 km/h - -
Wind:- - SW
Pressure: 1022.6 hPa 1018.8 hPa -
Precipitation: 0.3 mm    
Historical Graphs
 
 
Tabular Data for October 11, 2017
Time Temperature Dew Point Pressure Wind Wind Speed Wind Gust Humidity Rainfall Rate (Hourly)
00:02 13.4 °C 12.1 °C 1022.6 hPa Calm     92 % 0.0 mm
00:12 13.3 °C 12.2 °C 1022.6 hPa Calm     93 % 0.0 mm
00:17 13.2 °C 12.1 °C 1022.6 hPa Calm     93 % 0.0 mm
00:22 13.2 °C 12.1 °C 1022.2 hPa Calm     93 % 0.0 mm
00:32 13.2 °C 12.1 °C 1022.2 hPa Calm     93 % 0.0 mm
00:42 13.1 °C 12.0 °C 1022.2 hPa Calm     93 % 0.0 mm
00:47 13.1 °C 12.0 °C 1022.2 hPa Calm     93 % 0.0 mm
00:52 13.0 °C 12.1 °C 1022.2 hPa Calm     94 % 0.0 mm
00:57 12.9 °C 12.0 °C 1022.2 hPa Calm     94 % 0.0 mm
01:02 12.9 °C 12.0 °C 1022.2 hPa Calm     94 % 0.0 mm
01:07 12.9 °C 12.0 °C 1022.2 hPa Calm     94 % 0.0 mm
01:12 12.9 °C 12.0 °C 1022.2 hPa Calm     94 % 0.0 mm
01:17 12.9 °C 12.0 °C 1021.9 hPa Calm     94 % 0.0 mm
01:22 12.8 °C 11.9 °C 1021.9 hPa Calm     94 % 0.0 mm
01:27 12.8 °C 11.9 °C 1021.9 hPa Calm     94 % 0.0 mm
01:32 12.8 °C 11.9 °C 1021.9 hPa Calm     94 % 0.0 mm
01:42 12.7 °C 11.8 °C 1021.9 hPa Calm     94 % 0.0 mm
01:47 12.6 °C 11.7 °C 1021.9 hPa Calm     94 % 0.0 mm
01:52 12.5 °C 11.7 °C 1021.9 hPa Calm     95 % 0.0 mm
01:57 12.3 °C 11.5 °C 1021.9 hPa Calm     95 % 0.0 mm
02:02 12.2 °C 11.4 °C 1022.2 hPa Calm     95 % 0.0 mm
02:12 12.2 °C 11.4 °C 1022.2 hPa Calm     95 % 0.0 mm
02:17 12.2 °C 11.6 °C 1022.2 hPa Calm     96 % 0.0 mm
02:22 12.0 °C 11.2 °C 1021.9 hPa Calm     95 % 0.0 mm
02:27 11.9 °C 11.3 °C 1021.9 hPa Calm     96 % 0.0 mm
02:32 11.9 °C 11.3 °C 1021.9 hPa Calm     96 % 0.0 mm
02:37 11.8 °C 11.2 °C 1021.9 hPa Calm     96 % 0.0 mm
02:42 11.6 °C 10.8 °C 1021.9 hPa Calm     95 % 0.0 mm
02:47 11.5 °C 10.9 °C 1021.9 hPa Calm   1.6 km/h 96 % 0.0 mm
02:52 11.6 °C 11.0 °C 1021.9 hPa Calm   1.6 km/h 96 % 0.0 mm
02:57 11.7 °C 11.1 °C 1021.9 hPa Calm   1.6 km/h 96 % 0.0 mm
03:02 11.6 °C 11.0 °C 1021.9 hPa Calm     96 % 0.0 mm
03:07 11.4 °C 10.8 °C 1021.9 hPa Calm     96 % 0.0 mm
03:12 11.2 °C 10.6 °C 1021.9 hPa Calm     96 % 0.0 mm
03:17 11.1 °C 10.5 °C 1021.9 hPa Calm     96 % 0.0 mm
03:22 11.0 °C 10.4 °C 1021.9 hPa Calm     96 % 0.0 mm
03:27 10.9 °C 10.3 °C 1021.9 hPa Calm     96 % 0.0 mm
03:32 10.9 °C 10.4 °C 1021.9 hPa Calm     97 % 0.0 mm
03:37 11.1 °C 10.6 °C 1021.9 hPa Calm     97 % 0.0 mm
03:42 11.0 °C 10.5 °C 1021.9 hPa Calm     97 % 0.0 mm
03:47 10.8 °C 10.2 °C 1021.6 hPa Calm     96 % 0.0 mm
03:52 10.8 °C 10.3 °C 1021.6 hPa Calm     97 % 0.0 mm
03:57 10.9 °C 10.4 °C 1021.6 hPa Calm     97 % 0.0 mm
04:02 10.8 °C 10.2 °C 1021.6 hPa Calm     96 % 0.0 mm
04:07 10.7 °C 10.1 °C 1021.6 hPa Calm     96 % 0.0 mm
04:12 10.6 °C 10.0 °C 1021.6 hPa Calm     96 % 0.0 mm
04:17 10.6 °C 10.0 °C 1021.6 hPa Calm     96 % 0.0 mm
04:22 10.4 °C 9.8 °C 1021.6 hPa Calm     96 % 0.0 mm
04:32 10.3 °C 9.7 °C 1021.6 hPa Calm     96 % 0.0 mm
04:37 10.3 °C 9.8 °C 1021.6 hPa Calm     97 % 0.0 mm
04:42 10.3 °C 9.8 °C 1021.6 hPa Calm   1.6 km/h 97 % 0.0 mm
04:52 10.1 °C 9.5 °C 1021.2 hPa Calm   1.6 km/h 96 % 0.0 mm
04:57 10.1 °C 9.6 °C 1021.6 hPa Calm   1.6 km/h 97 % 0.0 mm
05:02 9.9 °C 9.3 °C 1021.2 hPa Calm   1.6 km/h 96 % 0.0 mm
05:07 9.9 °C 9.4 °C 1021.2 hPa Calm   1.6 km/h 97 % 0.0 mm
05:12 10.1 °C 9.6 °C 1021.2 hPa Calm   1.6 km/h 97 % 0.0 mm
05:22 9.9 °C 9.4 °C 1021.2 hPa Calm   1.6 km/h 97 % 0.0 mm
05:32 9.6 °C 9.0 °C 1021.2 hPa Calm     96 % 0.0 mm
05:42 9.4 °C 8.9 °C 1021.2 hPa Calm     97 % 0.0 mm
05:47 9.3 °C 8.8 °C 1021.2 hPa Calm     97 % 0.0 mm
05:52 9.2 °C 8.7 °C 1021.2 hPa Calm     97 % 0.0 mm
05:57 9.1 °C 8.6 °C 1021.2 hPa Calm   1.6 km/h 97 % 0.0 mm
06:02 9.1 °C 8.6 °C 1021.2 hPa Calm   1.6 km/h 97 % 0.0 mm
06:12 9.1 °C 8.6 °C 1021.2 hPa Calm   1.6 km/h 97 % 0.0 mm
06:17 9.1 °C 8.6 °C 1021.2 hPa Calm     97 % 0.0 mm
06:22 9.1 °C 8.6 °C 1021.2 hPa Calm     97 % 0.0 mm
06:32 9.1 °C 8.6 °C 1021.2 hPa Calm     97 % 0.0 mm
06:42 9.0 °C 8.5 °C 1021.2 hPa Calm     97 % 0.0 mm
06:47 8.9 °C 8.4 °C 1021.2 hPa Calm     97 % 0.0 mm
06:52 8.8 °C 8.3 °C 1021.2 hPa Calm     97 % 0.0 mm
07:12 8.8 °C 8.3 °C 1021.2 hPa Calm     97 % 0.0 mm
07:17 8.7 °C 8.3 °C 1021.2 hPa Calm     97 % 0.0 mm
07:22 8.5 °C 8.1 °C 1021.2 hPa Calm     97 % 0.0 mm
07:32 8.4 °C 8.0 °C 1021.2 hPa Calm     97 % 0.0 mm
17:37 21.4 °C 12.8 °C 1018.8 hPa SSW 6.4 km/h 19.3 km/h 58 % 0.0 mm
17:42 21.4 °C 13.1 °C 1018.8 hPa SSW 4.8 km/h 12.9 km/h 59 % 0.0 mm
17:47 21.3 °C 13.2 °C 1018.8 hPa SW 6.4 km/h 17.7 km/h 60 % 0.0 mm
17:57 21.2 °C 13.1 °C 1018.8 hPa South 8.0 km/h 16.1 km/h 60 % 0.0 mm
18:02 21.2 °C 12.9 °C 1018.8 hPa SW 3.2 km/h 16.1 km/h 59 % 0.0 mm
18:07 21.1 °C 13.0 °C 1018.8 hPa WSW 3.2 km/h 16.1 km/h 60 % 0.0 mm
18:12 21.1 °C 13.0 °C 1018.8 hPa SSW 3.2 km/h 11.3 km/h 60 % 0.0 mm
18:17 20.9 °C 13.1 °C 1018.8 hPa SSW 3.2 km/h 11.3 km/h 61 % 0.0 mm
18:22 20.9 °C 13.3 °C 1018.8 hPa SSW 1.6 km/h 11.3 km/h 62 % 0.0 mm
18:27 20.8 °C 13.5 °C 1018.8 hPa SW 1.6 km/h 6.4 km/h 63 % 0.0 mm
18:32 20.7 °C 13.6 °C 1018.8 hPa SW 1.6 km/h 6.4 km/h 64 % 0.0 mm
18:42 19.8 °C 13.3 °C 1019.2 hPa SW 1.6 km/h 4.8 km/h 66 % 0.0 mm
18:52 19.4 °C 13.1 °C 1018.8 hPa SSW 1.6 km/h 3.2 km/h 67 % 0.0 mm
18:57 19.2 °C 13.1 °C 1018.8 hPa Calm   3.2 km/h 68 % 0.0 mm
19:02 18.9 °C 13.1 °C 1018.8 hPa Calm   3.2 km/h 69 % 0.0 mm
19:07 18.6 °C 13.0 °C 1019.2 hPa Calm   1.6 km/h 70 % 0.0 mm
19:12 18.2 °C 13.1 °C 1019.2 hPa Calm   1.6 km/h 72 % 0.0 mm
19:17 17.9 °C 12.8 °C 1019.2 hPa Calm   3.2 km/h 72 % 0.0 mm
19:22 17.7 °C 12.8 °C 1019.2 hPa Calm   3.2 km/h 73 % 0.0 mm
19:27 17.4 °C 12.7 °C 1019.2 hPa SSW 1.6 km/h 3.2 km/h 74 % 0.0 mm
19:32 17.1 °C 12.6 °C 1019.2 hPa SW 3.2 km/h 3.2 km/h 75 % 0.0 mm
19:37 16.9 °C 12.4 °C 1019.2 hPa SW 3.2 km/h 3.2 km/h 75 % 0.0 mm
19:42 17.1 °C 12.6 °C 1019.2 hPa Calm   4.8 km/h 75 % 0.0 mm
19:47 17.1 °C 12.6 °C 1019.2 hPa SW 1.6 km/h 4.8 km/h 75 % 0.0 mm
19:52 17.1 °C 12.4 °C 1019.2 hPa SW 1.6 km/h 4.8 km/h 74 % 0.0 mm
19:57 17.2 °C 12.5 °C 1019.2 hPa SSW 1.6 km/h 4.8 km/h 74 % 0.0 mm
20:02 17.1 °C 12.4 °C 1019.5 hPa Calm   3.2 km/h 74 % 0.0 mm
20:12 16.8 °C 12.5 °C 1019.2 hPa SW 1.6 km/h 3.2 km/h 76 % 0.0 mm
20:22 16.4 °C 12.2 °C 1019.5 hPa Calm   3.2 km/h 76 % 0.0 mm
20:27 16.2 °C 12.2 °C 1019.5 hPa Calm   3.2 km/h 77 % 0.0 mm
20:37 15.8 °C 12.2 °C 1019.5 hPa SW 1.6 km/h 1.6 km/h 79 % 0.0 mm
20:42 15.8 °C 12.4 °C 1019.5 hPa West 1.6 km/h 3.2 km/h 80 % 0.0 mm
20:47 15.6 °C 12.4 °C 1019.5 hPa West 1.6 km/h 3.2 km/h 81 % 0.0 mm
20:52 15.6 °C 12.4 °C 1019.9 hPa Calm   3.2 km/h 81 % 0.0 mm
20:57 15.7 °C 12.4 °C 1019.9 hPa WSW 3.2 km/h 4.8 km/h 81 % 0.0 mm
21:07 15.9 °C 12.6 °C 1019.9 hPa SW 3.2 km/h 6.4 km/h 81 % 0.0 mm
21:17 16.0 °C 12.6 °C 1019.9 hPa SW 1.6 km/h 6.4 km/h 80 % 0.0 mm
21:27 15.8 °C 12.5 °C 1019.9 hPa Calm   4.8 km/h 81 % 0.0 mm
21:32 15.4 °C 12.2 °C 1019.9 hPa NE 1.6 km/h 4.8 km/h 81 % 0.0 mm
21:42 14.6 °C 11.9 °C 1019.9 hPa Calm   1.6 km/h 84 % 0.0 mm
21:47 14.6 °C 11.9 °C 1019.9 hPa Calm   1.6 km/h 84 % 0.0 mm
21:52 14.3 °C 11.8 °C 1020.2 hPa Calm   1.6 km/h 85 % 0.0 mm
21:57 14.2 °C 11.7 °C 1020.2 hPa Calm   1.6 km/h 85 % 0.0 mm
22:02 14.0 °C 11.7 °C 1020.2 hPa Calm   1.6 km/h 86 % 0.0 mm
22:12 13.7 °C 11.4 °C 1020.2 hPa South 1.6 km/h 3.2 km/h 86 % 0.0 mm
22:17 13.4 °C 11.3 °C 1020.2 hPa South 1.6 km/h 3.2 km/h 87 % 0.0 mm
22:22 13.2 °C 11.1 °C 1020.2 hPa South 1.6 km/h 3.2 km/h 87 % 0.0 mm
22:27 13.0 °C 11.1 °C 1020.2 hPa Calm   3.2 km/h 88 % 0.0 mm
22:37 12.9 °C 11.1 °C 1020.2 hPa Calm   3.2 km/h 89 % 0.0 mm
22:42 12.9 °C 11.1 °C 1020.2 hPa Calm   1.6 km/h 89 % 0.0 mm
22:47 12.9 °C 11.1 °C 1020.2 hPa Calm   1.6 km/h 89 % 0.0 mm
22:52 12.9 °C 11.3 °C 1020.2 hPa Calm   1.6 km/h 90 % 0.0 mm
22:57 13.0 °C 11.4 °C 1020.5 hPa SSW 1.6 km/h 3.2 km/h 90 % 0.0 mm
23:02 13.0 °C 11.2 °C 1020.5 hPa South 1.6 km/h 3.2 km/h 89 % 0.0 mm
23:07 13.4 °C 11.5 °C 1020.5 hPa SSW 4.8 km/h 9.7 km/h 88 % 0.0 mm
23:12 13.9 °C 11.6 °C 1020.5 hPa SSW 4.8 km/h 12.9 km/h 86 % 0.0 mm
23:17 14.3 °C 11.5 °C 1020.5 hPa WSW 11.3 km/h 12.9 km/h 83 % 0.0 mm
23:22 14.9 °C 11.9 °C 1020.5 hPa SSW 4.8 km/h 12.9 km/h 82 % 0.0 mm
23:27 15.5 °C 12.1 °C 1020.9 hPa WSW 6.4 km/h 17.7 km/h 80 % 0.0 mm
23:32 15.7 °C 12.1 °C 1020.9 hPa WSW 4.8 km/h 17.7 km/h 79 % 0.0 mm
23:42 15.9 °C 12.1 °C 1020.9 hPa WSW 6.4 km/h 17.7 km/h 78 % 0.0 mm
23:47 15.9 °C 12.3 °C 1020.9 hPa WSW 8.0 km/h 22.5 km/h 79 % 0.0 mm
23:52 15.9 °C 12.3 °C 1020.9 hPa WSW 9.7 km/h 22.5 km/h 79 % 0.0 mm
23:57 15.8 °C 12.4 °C 1020.9 hPa WSW 19.3 km/h 22.5 km/h 80 % 0.0 mm
Meteo18
Compliments of Weather Underground - 4 mb

Script developed by  Jim McMurry - jmcmurry@mwt.net Adapted for the template by  Wim van der Kuil - Leuven-Template.eu

You find our weather info also at:

European Weather Network

Weather Underground

Equipment we use:

Weather-station
Davis Vue

Weather-program
Meteohub

Weather-server
Raspberry PI 2 B+

Provider
1 and 1

Davis Vue

Meteohub

Raspberry PI 2 B+

1 and 1